Flight Track Log - Related Links

Times and Time Zones

All times are in EDT time to prevent confusion due to time zone crossing. See the ASH3770 flight status page for this flight to view local times or setup timezone preferences in your user account.

Time Position Orientation Groundspeed Altitude Reporting Facility
EDT Latitude Longitude Course Direction KTS MPH feet Rate Location/Type
Mon 01:50:16 PM 38.9000 -77.4500 201° Southwest 196 226 1,800  Level Potomac TRACON
Mon 01:51:17 PM 38.8333 -77.4833 201° Southwest 248 285 4,000 2,365 Climbing Potomac TRACON
Mon 01:53:39 PM 38.7658 -77.6844 247° West 271 312 9,800 1,782 Climbing Washington Center
Mon 01:54:39 PM 38.7869 -77.7967 284° West 277 319 10,000 100 Climbing Washington Center
Mon 01:55:39 PM 38.8075 -77.9225 282° West 327 376 10,000 950 Level Washington Center
Mon 01:56:39 PM 38.8278 -78.0486 282° West 347 399 11,900 1,950 Climbing Washington Center
Mon 01:57:39 PM 38.8481 -78.1744 282° West 361 415 13,900 2,000 Climbing Washington Center
Mon 01:58:39 PM 38.8392 -78.3047 265° West 366 421 15,900 2,000 Climbing Washington Center
Mon 01:59:39 PM 38.8236 -78.4347 261° West 366 421 17,900 1,750 Climbing Washington Center
Mon 02:00:39 PM 38.8058 -78.5619 260° West 366 421 19,400 1,600 Climbing Washington Center
Mon 02:01:39 PM 38.7900 -78.6892 261° West 371 427 21,100 1,500 Climbing Washington Center
Mon 02:02:39 PM 38.7742 -78.8189 261° West 371 427 22,400 1,200 Climbing Washington Center
Mon 02:03:39 PM 38.7561 -78.9486 260° West 371 427 23,500 1,050 Climbing Washington Center
Mon 02:04:39 PM 38.7397 -79.0864 261° West 376 433 24,500 1,100 Climbing Washington Center
Mon 02:05:39 PM 38.7189 -79.2211 259° West 387 445 25,700 750 Climbing Washington Center
Mon 02:06:39 PM 38.7061 -79.3667 264° West 403 464 26,000 150 Climbing Washington Center
Mon 02:07:39 PM 38.6842 -79.5331 260° West 422 486 26,000  Level Washington Center
Mon 02:08:39 PM 38.6644 -79.6811 260° West 428 493 26,000  Level Washington Center
Mon 02:09:39 PM 38.6428 -79.8286 259° West 428 493 26,000  Level Washington Center
Mon 02:10:39 PM 38.6208 -79.9736 259° West 422 486 26,000  Level Washington Center
Mon 02:11:39 PM 38.6017 -80.1000 259° West 422 486 26,000 612 Level Washington Center
Mon 02:14:05 PM 38.5500 -80.4536 260° West 408 470 28,100 894 Climbing Indianapolis Center
Mon 02:15:07 PM 38.5297 -80.5944 260° West 404 465 29,100 976 Climbing Indianapolis Center
Mon 02:16:08 PM 38.5083 -80.7336 259° West 398 458 30,100 976 Climbing Indianapolis Center
Mon 02:17:10 PM 38.4886 -80.8714 260° West 395 455 31,100 968 Climbing Indianapolis Center
Mon 02:18:12 PM 38.4678 -81.0075 259° West 390 449 32,100 976 Climbing Indianapolis Center
Mon 02:19:13 PM 38.4475 -81.1403 259° West 381 438 33,100 927 Climbing Indianapolis Center
Mon 02:20:15 PM 38.4269 -81.2725 259° West 377 434 34,000 439 Climbing Indianapolis Center
Mon 02:21:16 PM 38.4056 -81.4075 259° West 382 440 34,000  Level Indianapolis Center
Mon 02:22:18 PM 38.3831 -81.5489 259° West 400 460 34,000  Level Indianapolis Center
Mon 02:23:20 PM 38.3622 -81.6917 260° West 406 467 34,000  Level Indianapolis Center
Mon 02:24:22 PM 38.3319 -81.8347 255° West 415 478 34,000  Level Indianapolis Center
Mon 02:25:23 PM 38.2839 -82.0014 250° West 418 481 34,000  Level Indianapolis Center
Mon 02:26:25 PM 38.2458 -82.1431 251° West 419 482 34,000  Level Indianapolis Center
Mon 02:27:27 PM 38.2081 -82.2758 250° West 405 466 34,000  Level Indianapolis Center
Mon 02:28:28 PM 38.1717 -82.4064 251° West 396 456 34,000  Level Indianapolis Center
Mon 02:29:30 PM 38.1350 -82.5306 249° West 389 448 34,000  Level Indianapolis Center
Mon 02:30:32 PM 38.0914 -82.6808 250° West 387 445 34,000  Level Indianapolis Center
Mon 02:31:33 PM 38.0542 -82.8106 250° West 390 449 34,000  Level Indianapolis Center
Mon 02:32:35 PM 38.0164 -82.9408 250° West 394 453 34,000  Level Indianapolis Center
Mon 02:33:37 PM 37.9783 -83.0711 250° West 394 453 34,000  Level Indianapolis Center
Mon 02:34:39 PM 37.9408 -83.2006 250° West 393 452 34,000  Level Indianapolis Center
Mon 02:35:40 PM 37.9022 -83.3311 249° West 394 453 34,000  Level Indianapolis Center
Mon 02:36:42 PM 37.8572 -83.4828 249° West 393 452 34,000  Level Indianapolis Center
Mon 02:37:44 PM 37.8178 -83.6119 249° West 395 455 34,000  Level Indianapolis Center
Mon 02:38:46 PM 37.7792 -83.7431 250° West 396 456 34,000  Level Indianapolis Center
Mon 02:39:47 PM 37.7394 -83.8722 249° West 398 458 34,000  Level Indianapolis Center
Mon 02:40:49 PM 37.7011 -84.0017 250° West 395 455 34,000  Level Indianapolis Center
Mon 02:41:51 PM 37.6594 -84.1347 248° West 403 464 34,000  Level Indianapolis Center
Mon 02:42:52 PM 37.6147 -84.2861 250° West 398 458 34,000  Level Indianapolis Center
Mon 02:43:54 PM 37.5750 -84.4167 249° West 399 459 34,000  Level Indianapolis Center
Mon 02:44:56 PM 37.5331 -84.5492 248° West 404 465 34,000  Level Indianapolis Center
Mon 02:45:58 PM 37.4922 -84.6797 249° West 401 461 34,000  Level Indianapolis Center
Mon 02:46:59 PM 37.4514 -84.8114 249° West 404 465 34,000  Level Indianapolis Center
Mon 02:48:01 PM 37.4106 -84.9431 249° West 404 465 34,000  Level Indianapolis Center
Mon 02:49:03 PM 37.3622 -85.0953 248° West 402 463 34,000  Level Indianapolis Center
Mon 02:50:05 PM 37.3206 -85.2269 248° West 406 467 34,000  Level Indianapolis Center
Mon 02:51:06 PM 37.2797 -85.3581 249° West 405 466 34,000  Level Indianapolis Center
Mon 02:52:08 PM 37.2375 -85.4889 248° West 404 465 34,000  Level Indianapolis Center
Mon 02:53:10 PM 37.1967 -85.6186 248° West 408 470 34,000  Level Indianapolis Center
Mon 02:53:30 PM 37.1806 -85.6631 246° West 399 459 34,000  Level Memphis Center
Mon 02:54:30 PM 37.1394 -85.7928 248° West 399 459 34,000  Level Memphis Center
Mon 02:55:30 PM 37.0986 -85.9253 249° West 404 465 34,000  Level Memphis Center
Mon 02:56:30 PM 37.0514 -86.0683 248° West 404 465 34,000  Level Memphis Center
Mon 02:57:30 PM 37.0100 -86.1978 248° West 404 465 34,000  Level Memphis Center
Mon 02:58:30 PM 36.9664 -86.3272 247° West 404 465 34,000  Level Memphis Center
Mon 02:59:30 PM 36.9206 -86.4592 247° West 404 465 34,000  Level Memphis Center
Mon 03:00:30 PM 36.8597 -86.5764 237° Southwest 409 471 34,000  Level Memphis Center
Mon 03:01:30 PM 36.7944 -86.6961 236° Southwest 415 478 34,000  Level Memphis Center
Mon 03:02:30 PM 36.7311 -86.8128 236° Southwest 421 484 34,000  Level Memphis Center
Mon 03:03:30 PM 36.6700 -86.9344 238° Southwest 421 484 34,000  Level Memphis Center
Mon 03:04:30 PM 36.6022 -87.0511 234° Southwest 426 490 34,000  Level Memphis Center
Mon 03:05:30 PM 36.5386 -87.1725 237° Southwest 426 490 34,000  Level Memphis Center
Mon 03:06:30 PM 36.4750 -87.2911 236° Southwest 432 497 34,000  Level Memphis Center
Mon 03:07:30 PM 36.4092 -87.4097 235° Southwest 432 497 34,000  Level Memphis Center
Mon 03:08:30 PM 36.3431 -87.5281 235° Southwest 427 491 34,000  Level Memphis Center
Mon 03:09:30 PM 36.2789 -87.6461 236° Southwest 427 491 34,000  Level Memphis Center
Mon 03:10:30 PM 36.2147 -87.7639 236° Southwest 427 491 34,000  Level Memphis Center
Mon 03:11:30 PM 36.1544 -87.8714 235° Southwest 427 491 34,000  Level Memphis Center
Mon 03:12:30 PM 36.0900 -87.9889 236° Southwest 427 491 34,000  Level Memphis Center
Mon 03:13:30 PM 36.0256 -88.1061 236° Southwest 427 491 34,000  Level Memphis Center
Mon 03:14:30 PM 35.9586 -88.2183 234° Southwest 427 491 34,000  Level Memphis Center
Mon 03:15:30 PM 35.8939 -88.3378 236° Southwest 427 491 34,000  Level Memphis Center
Mon 03:16:30 PM 35.8250 -88.4547 234° Southwest 427 491 34,000  Level Memphis Center
Mon 03:17:30 PM 35.7578 -88.5714 235° Southwest 433 498 34,000  Level Memphis Center
Mon 03:18:30 PM 35.6906 -88.6906 235° Southwest 433 498 34,000  Level Memphis Center
Mon 03:19:30 PM 35.6194 -88.8222 236° Southwest 433 498 34,000  Level Memphis Center
Mon 03:20:30 PM 35.5539 -88.9356 235° Southwest 423 487 34,000  Level Memphis Center
Mon 03:21:30 PM 35.4864 -89.0542 235° Southwest 428 493 34,000  Level Memphis Center
Mon 03:22:30 PM 35.4208 -89.1697 235° Southwest 428 493 34,000  Level Memphis Center
Mon 03:23:30 PM 35.3531 -89.2853 234° Southwest 428 493 34,000  Level Memphis Center
Mon 03:24:30 PM 35.2872 -89.4006 235° Southwest 428 493 34,000  Level Memphis Center
Mon 03:25:30 PM 35.2214 -89.5158 235° Southwest 428 493 34,000  Level Memphis Center
Mon 03:26:30 PM 35.1617 -89.6206 235° Southwest 428 493 34,000  Level Memphis Center
Mon 03:27:30 PM 35.0956 -89.7353 235° Southwest 428 493 34,000  Level Memphis Center
Mon 03:28:30 PM 35.0292 -89.8525 235° Southwest 428 493 34,000  Level Memphis Center
Mon 03:29:30 PM 34.9525 -89.9822 234° Southwest 428 493 34,000  Level Memphis Center
Mon 03:30:30 PM 34.8903 -90.0836 233° Southwest 434 499 34,000  Level Memphis Center
Mon 03:31:30 PM 34.8236 -90.1978 235° Southwest 424 488 34,000  Level Memphis Center
Mon 03:32:30 PM 34.7550 -90.3117 234° Southwest 424 488 34,000  Level Memphis Center
Mon 03:33:30 PM 34.6861 -90.4253 234° Southwest 429 494 34,000  Level Memphis Center
Mon 03:34:30 PM 34.6192 -90.5414 235° Southwest 429 494 34,000  Level Memphis Center
Mon 03:35:30 PM 34.5500 -90.6522 233° Southwest 429 494 34,000  Level Memphis Center
Mon 03:36:30 PM 34.4789 -90.7653 233° Southwest 429 494 34,000  Level Memphis Center
Mon 03:37:30 PM 34.4136 -90.8808 236° Southwest 429 494 34,000  Level Memphis Center
Mon 03:38:30 PM 34.3358 -91.0011 232° Southwest 429 494 34,000  Level Memphis Center
Mon 03:39:30 PM 34.2686 -91.1186 235° Southwest 429 494 34,000  Level Memphis Center
Mon 03:40:30 PM 34.1989 -91.2286 233° Southwest 429 494 34,000  Level Memphis Center
Mon 03:41:30 PM 34.1314 -91.3408 234° Southwest 429 494 34,000  Level Memphis Center
Mon 03:42:30 PM 34.0614 -91.4528 233° Southwest 424 488 34,000  Level Memphis Center
Mon 03:43:30 PM 33.9936 -91.5647 234° Southwest 424 488 34,000  Level Memphis Center
Mon 03:44:30 PM 33.9278 -91.6739 234° Southwest 424 488 34,000  Level Memphis Center
Mon 03:46:03 PM 33.8244 -91.8458 234° Southwest 423 487 34,000  Level Fort Worth Center
Mon 03:47:03 PM 33.7564 -91.9550 233° Southwest 418 481 34,000  Level Fort Worth Center
Mon 03:48:03 PM 33.6881 -92.0642 233° Southwest 423 487 34,000  Level Fort Worth Center
Mon 03:49:03 PM 33.6175 -92.1731 232° Southwest 423 487 34,000  Level Fort Worth Center
Mon 03:50:03 PM 33.5589 -92.2689 234° Southwest 423 487 34,000  Level Fort Worth Center
Mon 03:52:03 PM 33.4233 -92.4808 233° Southwest 413 475 34,000  Level Fort Worth Center
Mon 03:53:03 PM 33.3544 -92.5867 232° Southwest 413 475 34,000  Level Fort Worth Center
Mon 03:54:03 PM 33.2853 -92.6897 231° Southwest 407 468 34,000  Level Fort Worth Center
Mon 03:55:03 PM 33.2161 -92.7978 233° Southwest 407 468 34,000  Level Fort Worth Center
Mon 03:56:03 PM 33.1361 -92.8936 225° Southwest 407 468 34,000  Level Fort Worth Center
Mon 03:57:03 PM 33.0475 -92.9775 218° Southwest 412 474 34,000  Level Fort Worth Center
Mon 03:58:03 PM 32.9564 -93.0586 217° Southwest 412 474 34,000  Level Fort Worth Center
Mon 03:59:03 PM 32.8672 -93.1422 218° Southwest 418 481 34,000  Level Fort Worth Center
Mon 04:00:03 PM 32.7764 -93.2281 218° Southwest 418 481 34,000  Level Fort Worth Center
Mon 04:01:03 PM 32.6872 -93.3136 219° Southwest 418 481 34,000  Level Fort Worth Center
Mon 04:02:03 PM 32.5981 -93.3967 218° Southwest 418 481 34,000  Level Fort Worth Center
Mon 04:03:03 PM 32.5069 -93.4819 218° Southwest 418 481 34,000  Level Fort Worth Center
Mon 04:04:03 PM 32.4156 -93.5647 217° Southwest 418 481 34,000  Level Fort Worth Center
Mon 04:05:03 PM 32.3261 -93.6472 218° Southwest 418 481 34,000  Level Fort Worth Center
Mon 04:06:03 PM 32.2369 -93.7319 219° Southwest 418 481 34,000  Level Fort Worth Center
Mon 04:07:03 PM 32.1394 -93.8289 220° Southwest 418 481 34,000  Level Fort Worth Center
Mon 04:08:03 PM 32.0478 -93.9133 218° Southwest 418 481 34,000  Level Fort Worth Center
Mon 04:09:03 PM 31.9561 -93.9953 217° Southwest 418 481 34,000  Level Fort Worth Center
Mon 04:10:03 PM 31.8667 -94.0794 219° Southwest 418 481 34,000  Level Fort Worth Center
Mon 04:11:03 PM 31.7750 -94.1658 219° Southwest 418 481 34,000  Level Fort Worth Center
Mon 04:12:52 PM 31.6053 -94.3158 217° Southwest 419 482 34,000  Level Houston Center
Mon 04:13:54 PM 31.5133 -94.3989 218° Southwest 415 478 34,000  Level Houston Center
Mon 04:14:56 PM 31.4197 -94.4836 218° Southwest 421 484 34,000  Level Houston Center
Mon 04:15:59 PM 31.3267 -94.5672 218° Southwest 419 482 34,000  Level Houston Center
Mon 04:17:01 PM 31.2228 -94.6619 218° Southwest 426 490 34,000  Level Houston Center
Mon 04:18:03 PM 31.1311 -94.7481 219° Southwest 429 494 34,000  Level Houston Center
Mon 04:19:05 PM 31.0447 -94.8417 223° Southwest 427 491 34,000  Level Houston Center
Mon 04:20:07 PM 30.9594 -94.9342 223° Southwest 420 483 34,000  Level Houston Center
Mon 04:21:09 PM 30.8722 -95.0281 223° Southwest 423 487 34,000  Level Houston Center
Mon 04:22:11 PM 30.7672 -95.1389 222° Southwest 425 489 34,000  Level Houston Center
Mon 04:23:13 PM 30.6814 -95.2314 223° Southwest 422 486 34,000  Level Houston Center
Mon 04:24:15 PM 30.5939 -95.3231 222° Southwest 423 487 34,000  Level Houston Center
Mon 04:25:18 PM 30.5072 -95.4153 223° Southwest 422 486 34,000 -48 Level Houston Center
Mon 04:26:20 PM 30.4242 -95.5042 223° Southwest 421 484 33,900 -629 Descending Houston Center
Mon 04:27:22 PM 30.3192 -95.6175 223° Southwest 430 495 32,700 -1,065 Descending Houston Center
Mon 04:28:24 PM 30.2336 -95.7072 222° Southwest 421 484 31,700 -919 Descending Houston Center
Mon 04:29:26 PM 30.1503 -95.7944 222° Southwest 408 470 30,800 -919 Descending Houston Center
Mon 04:30:28 PM 30.0667 -95.8811 222° Southwest 407 468 29,800 -1,161 Descending Houston Center
Mon 04:31:30 PM 29.9850 -95.9664 222° Southwest 399 459 28,400 -1,500 Descending Houston Center
Mon 04:32:32 PM 29.8947 -96.0600 222° Southwest 393 452 26,700 -1,790 Descending Houston Center
Mon 04:33:34 PM 29.8778 -96.1731 260° West 377 434 24,700 -2,016 Descending Houston Center
Mon 04:34:37 PM 29.9058 -96.2886 286° West 375 432 22,500 -2,352 Descending Houston Center
Mon 04:35:39 PM 29.9392 -96.4269 286° West 375 432 19,800 -2,516 Descending Houston Center
Mon 04:36:41 PM 29.9683 -96.5447 286° West 382 440 17,300 -2,323 Descending Houston Center
Mon 04:37:43 PM 29.9969 -96.6614 286° West 383 441 15,000 -2,226 Descending Houston Center
Mon 04:38:45 PM 30.0236 -96.7703 286° West 357 411 12,700 -1,403 Descending Houston Center
Mon 04:39:47 PM 30.0497 -96.8733 286° West 341 392 12,100 -871 Descending Houston Center
Mon 04:40:49 PM 30.0792 -96.9756 288° West 338 389 10,900 -1,200 Descending Houston Center
Mon 04:41:52 PM 30.1097 -97.0800 289° West 305 351 9,600 -1,248 Descending Houston Center
Mon 04:42:54 PM 30.1356 -97.1639 290° West 278 320 8,300 -726 Descending Houston Center
Mon 04:43:56 PM 30.1636 -97.2467 291° West 275 316 8,100 -194 Descending Houston Center
Mon 04:44:58 PM 30.1869 -97.3472 285° West 266 306 7,900 -581 Descending Houston Center
Mon 04:46:00 PM 30.2011 -97.4208 283° West 240 276 6,900 -919 Descending Houston Center
Mon 04:47:02 PM 30.2158 -97.4939 283° West 232 267 6,000 -435 Descending Houston Center
Mon 04:48:04 PM 30.2572 -97.5425 315° West 243 280 6,000 -290 Level Houston Center
Mon 04:49:06 PM 30.3325 -97.5428 360° North 265 305 5,400 -480 Descending Houston Center
Mon 04:50:09 PM 30.4050 -97.5444 359° North 259 298 5,000 -288 Descending Houston Center
Mon 04:51:11 PM 30.4481 -97.5894 318° Northwest 236 272 4,800 -871 Descending Houston Center
Mon 04:52:13 PM 30.4422 -97.6603 265° West 228 262 3,200 -871 Descending Houston Center
Mon 04:53:15 PM 30.3814 -97.6867 201° Southwest 205 236 3,000 -242 Descending Houston Center
Mon 04:54:17 PM 30.3272 -97.6825 176° South 195 224 2,700 -532 Descending Houston Center
Mon 04:55:19 PM 30.2828 -97.6808 178° South 174 200 1,900 -726 Descending Houston Center
Mon 04:56:21 PM 30.2464 -97.6792 178° South 142 163 1,200 -435 Descending Houston Center
Mon 04:57:23 PM 30.2047 -97.6781 179° South 139 160 1,000 -194 Descending Houston Center

Login

Don't have an account? Register now (free) for customized features, flight alerts, and more!